Аэропорт
Ош (UCFO)

 UCFO / OSS
ЗЦ Центральная Азия
Ош (UCFO)
Ош (UCFO)
 40.60900, 72.79330  / 2927 ft

 UCFO 230030Z 16002MPS 2900 BR NSC 11/10 Q1013 R12/0///95 TEMPO 1500 BR

показать схемы



2019 © VATRUS division (Privacy Policy)